M I D A S
Marine Information and Data Acquisition System
Tripno 2167 of the Zeeleeuw from 2011-08-19 07:27:30 to 2011-08-19 15:53:17
Back to CruiseResearch ActivitiesStationsMapUnderway DataData graphs

EquipmentUnitsComment
TimeDGPSUTC
LatitudeDGPSDM.mWGS84
LongitudeDGPSDM.mWGS84
HeadingGyrodeg 
SOGDGPSknotsSpeed over ground
COGDGPSdegCourse over ground
DepthEcho soundermeters200 kHz
Missing or incorrect values are displayed as -999
Navigation data collected by the RV Zeeleeuw from 2011-08-19 07:08:29 to 2011-08-19 15:54:02
                                                                                    Next 1000 lines
Time Latitude Longitude Heading SOG COG Depth
2011-08-19 07:08:39 51°13.638 2°56.019 127.2 0.1 344 7.7
2011-08-19 07:08:44 51°13.638 2°56.019 127.6 0.1 274 7.8
2011-08-19 07:08:48 51°13.638 2°56.019 127.3 -999 87 7.7
2011-08-19 07:08:54 51°13.637 2°56.019 127.3 -999 225 7.6
2011-08-19 07:08:58 51°13.636 2°56.018 127.3 -999 13 7.6
2011-08-19 07:09:03 51°13.635 2°56.018 127.3 0.1 122 7.7
2011-08-19 07:09:08 51°13.635 2°56.018 127.2 -999 286 7.7
2011-08-19 07:09:12 51°13.635 2°56.018 127.1 0.1 305 7.7
2011-08-19 07:09:17 51°13.636 2°56.018 127.1 -999 46 7.7
2011-08-19 07:09:23 51°13.636 2°56.019 127.1 -999 150 7.6
2011-08-19 07:09:27 51°13.636 2°56.019 127.1 -999 99 7.6
2011-08-19 07:09:32 51°13.636 2°56.019 127.1 0.1 73 7.7
2011-08-19 07:09:37 51°13.636 2°56.019 127.1 -999 66 7.6
2011-08-19 07:09:42 51°13.637 2°56.019 126.4 0.1 193 7.6
2011-08-19 07:09:46 51°13.637 2°56.019 124.8 -999 189 7.7
2011-08-19 07:09:52 51°13.637 2°56.019 123.8 0.1 208 7.7
2011-08-19 07:09:56 51°13.637 2°56.019 122.4 0.1 188 5.7
2011-08-19 07:10:01 51°13.637 2°56.019 121.2 0.1 185 7.8
2011-08-19 07:10:07 51°13.637 2°56.019 120.2 0.1 200 7.6
2011-08-19 07:10:11 51°13.636 2°56.019 118.5 0.1 212 7.7
2011-08-19 07:10:16 51°13.635 2°56.019 117.4 0.1 197 7.7
2011-08-19 07:10:22 51°13.635 2°56.018 116 0.1 205 7.6
2011-08-19 07:10:27 51°13.635 2°56.018 114.6 0.1 201 7.6
2011-08-19 07:10:31 51°13.634 2°56.018 112.7 0.1 232 5.8
2011-08-19 07:10:36 51°13.634 2°56.018 111.6 0.1 252 7.5
2011-08-19 07:10:42 51°13.635 2°56.017 110.4 0.3 269 7.6
2011-08-19 07:10:47 51°13.635 2°56.016 109.7 0.4 276 7.6
2011-08-19 07:10:52 51°13.635 2°56.015 109.4 0.6 274 7.6
2011-08-19 07:10:56 51°13.635 2°56.013 109.3 0.9 288 5.7
2011-08-19 07:11:02 51°13.636 2°56.009 110.2 1.3 282 5.8
2011-08-19 07:11:06 51°13.637 2°56.006 111.5 1.8 290 7.9
2011-08-19 07:11:12 51°13.638 2°56.001 112.8 2.2 290 -999
2011-08-19 07:11:19 51°13.641 2°55.993 114.5 2.6 294 -999
2011-08-19 07:11:24 51°13.643 2°55.987 116.2 2.9 295 -999
2011-08-19 07:11:29 51°13.645 2°55.981 117.3 3.1 297 -999
2011-08-19 07:11:34 51°13.647 2°55.974 117.8 3.4 297 -999
2011-08-19 07:11:41 51°13.65 2°55.964 118 3.6 298 -999
2011-08-19 07:11:46 51°13.652 2°55.956 118.1 3.8 297 -999
2011-08-19 07:11:50 51°13.654 2°55.95 118.1 4 297 -999
2011-08-19 07:11:55 51°13.657 2°55.942 117.7 4 295 -999
2011-08-19 07:12:00 51°13.659 2°55.933 116.9 4.3 297 -999
2011-08-19 07:12:05 51°13.662 2°55.924 116.8 4.5 295 -999
2011-08-19 07:12:10 51°13.665 2°55.915 116.6 4.5 296 -999
2011-08-19 07:12:15 51°13.668 2°55.906 116.6 4.6 295 -999
2011-08-19 07:12:20 51°13.671 2°55.896 116.8 4.7 296 -999
2011-08-19 07:12:25 51°13.673 2°55.887 116.7 4.7 296 -999
2011-08-19 07:12:30 51°13.676 2°55.878 116.2 4.7 295 -999
2011-08-19 07:12:35 51°13.679 2°55.868 115.5 4.7 295 -999
2011-08-19 07:12:40 51°13.681 2°55.859 114.7 4.7 294 -999
2011-08-19 07:12:46 51°13.684 2°55.847 113.6 4.7 294 -999
2011-08-19 07:12:51 51°13.687 2°55.838 112.6 4.7 293 -999
2011-08-19 07:12:55 51°13.689 2°55.83 111.5 4.7 292 -999
2011-08-19 07:13:00 51°13.691 2°55.82 110.3 4.7 290 -999
2011-08-19 07:13:06 51°13.694 2°55.809 108.8 4.7 289 -999
2011-08-19 07:13:10 51°13.695 2°55.801 107.6 4.6 288 -999
2011-08-19 07:13:15 51°13.697 2°55.792 105.8 4.2 287 -999
2011-08-19 07:13:21 51°13.698 2°55.782 104.7 4 285 -999
2011-08-19 07:13:26 51°13.699 2°55.775 103.9 3.8 285 -999
2011-08-19 07:13:30 51°13.7 2°55.769 103.5 3.6 284 -999
2011-08-19 07:13:35 51°13.701 2°55.761 103.2 3.4 283 -999
2011-08-19 07:13:40 51°13.702 2°55.755 103.1 3.3 283 12.4
2011-08-19 07:13:44 51°13.703 2°55.749 103.1 3.2 282 12.3
2011-08-19 07:13:50 51°13.704 2°55.742 103.1 2.9 282 12.4
2011-08-19 07:13:55 51°13.704 2°55.736 103.2 2.7 281 -999
2011-08-19 07:14:01 51°13.705 2°55.73 103.4 2.4 282 4.8
2011-08-19 07:14:04 51°13.706 2°55.728 103.1 2.1 278 -999
2011-08-19 07:14:10 51°13.706 2°55.723 102.4 1.7 278 12.8
2011-08-19 07:14:14 51°13.706 2°55.721 101.7 1.2 275 13.4
2011-08-19 07:14:19 51°13.706 2°55.72 101 0.7 285 13.2
2011-08-19 07:14:25 51°13.706 2°55.719 98.9 0.3 282 13.3
2011-08-19 07:14:29 51°13.707 2°55.72 95.9 0.2 13 13.3
2011-08-19 07:14:34 51°13.707 2°55.721 91.9 0.5 69 13.4
2011-08-19 07:14:39 51°13.707 2°55.722 87.2 0.8 69 13.3
2011-08-19 07:14:44 51°13.708 2°55.724 81.9 0.9 71 13.3
2011-08-19 07:14:48 51°13.708 2°55.726 75.1 0.9 67 13
2011-08-19 07:14:53 51°13.709 2°55.728 70.9 0.9 63 12.9
2011-08-19 07:14:58 51°13.71 2°55.729 67.4 0.8 62 -999
2011-08-19 07:15:04 51°13.711 2°55.731 64.1 0.7 62 -999
2011-08-19 07:15:09 51°13.711 2°55.732 61.8 0.7 54 12.3
2011-08-19 07:15:15 51°13.712 2°55.734 60.3 0.9 52 12.3
2011-08-19 07:15:20 51°13.712 2°55.737 59.6 1.4 55 12.5
2011-08-19 07:15:24 51°13.713 2°55.739 57.4 1.8 46 12.5
2011-08-19 07:15:29 51°13.716 2°55.742 52.4 2.6 41 12.3
2011-08-19 07:15:34 51°13.719 2°55.746 47.5 2.9 35 12.2
2011-08-19 07:15:40 51°13.723 2°55.749 37.5 2.7 23 12.4
2011-08-19 07:15:44 51°13.726 2°55.751 29.6 2.6 26 12.2
2011-08-19 07:15:49 51°13.729 2°55.753 26.2 2.3 21 12.2
2011-08-19 07:15:55 51°13.732 2°55.755 23.3 2.1 23 -999
2011-08-19 07:16:00 51°13.734 2°55.757 21.2 1.6 21 -999
2011-08-19 07:16:05 51°13.735 2°55.757 18.5 1 21 -999
2011-08-19 07:16:10 51°13.736 2°55.758 15.7 0.5 16 -999
2011-08-19 07:16:15 51°13.735 2°55.758 13.5 0.2 128 -999
2011-08-19 07:16:20 51°13.735 2°55.758 12.5 0.5 179 -999
2011-08-19 07:16:25 51°13.733 2°55.758 12 0.9 189 -999
2011-08-19 07:16:31 51°13.731 2°55.757 11.8 1.2 188 -999
2011-08-19 07:16:35 51°13.729 2°55.757 11.7 1.6 190 -999
2011-08-19 07:16:41 51°13.726 2°55.756 11.7 1.9 189 -999
2011-08-19 07:16:45 51°13.724 2°55.756 11.9 2.2 190 -999
2011-08-19 07:16:50 51°13.72 2°55.755 12.1 2.4 191 -999
2011-08-19 07:16:55 51°13.717 2°55.754 12.4 2.3 192 -999
2011-08-19 07:17:00 51°13.714 2°55.753 12.6 2.2 192 -999
2011-08-19 07:17:05 51°13.711 2°55.752 12.7 2 195 -999
2011-08-19 07:17:11 51°13.709 2°55.751 12.7 1.4 190 -999
2011-08-19 07:17:15 51°13.709 2°55.751 11.7 0.6 189 -999
2011-08-19 07:17:20 51°13.709 2°55.75 7 0.4 336 -999
2011-08-19 07:17:25 51°13.711 2°55.749 2.1 1.1 349 -999
2011-08-19 07:17:30 51°13.714 2°55.748 352.8 1.8 345 -999
2011-08-19 07:17:35 51°13.717 2°55.746 343.8 2.6 337 -999
2011-08-19 07:17:40 51°13.721 2°55.743 336.8 3.3 333 -999
2011-08-19 07:17:45 51°13.726 2°55.739 334 4 333 -999
2011-08-19 07:17:51 51°13.733 2°55.732 332.1 4.6 330 -999
2011-08-19 07:17:55 51°13.738 2°55.728 331.7 5.2 331 -999
2011-08-19 07:18:00 51°13.746 2°55.721 331.6 5.8 329 11.9
2011-08-19 07:18:04 51°13.752 2°55.715 331.3 6.3 330 11.8
2011-08-19 07:18:09 51°13.76 2°55.708 331.3 6.7 330 11.6
2011-08-19 07:18:14 51°13.768 2°55.701 331.7 6.9 331 11.8
2011-08-19 07:18:20 51°13.778 2°55.691 331.8 7.2 329 -999
2011-08-19 07:18:25 51°13.787 2°55.683 331.7 7.5 331 -999
2011-08-19 07:18:30 51°13.796 2°55.675 332.6 7.6 331 11.3
2011-08-19 07:18:34 51°13.803 2°55.668 332.8 7.8 331 11.3
2011-08-19 07:18:39 51°13.812 2°55.66 333 7.9 333 11.3
2011-08-19 07:18:44 51°13.823 2°55.652 334.1 8 334 11.5
2011-08-19 07:18:49 51°13.833 2°55.644 334.7 8.1 333 11.8
2011-08-19 07:18:54 51°13.843 2°55.636 335 8.3 335 11.7
2011-08-19 07:19:00 51°13.856 2°55.626 335.5 8.5 334 11.7
2011-08-19 07:19:04 51°13.865 2°55.62 335.8 8.7 335 -999
2011-08-19 07:19:08 51°13.874 2°55.613 336.1 8.8 334 11.6
2011-08-19 07:19:13 51°13.885 2°55.604 335.8 9 334 11.7
2011-08-19 07:19:18 51°13.896 2°55.596 335.5 9.1 334 11.8
2011-08-19 07:19:23 51°13.908 2°55.587 336.2 9.2 335 11.8
2011-08-19 07:19:28 51°13.92 2°55.578 336.1 9.2 333 11.8
2011-08-19 07:19:34 51°13.934 2°55.568 335.4 9.2 335 11.8
2011-08-19 07:19:38 51°13.943 2°55.561 336 9.2 335 11.7
2011-08-19 07:19:43 51°13.954 2°55.552 336.3 9.2 334 11.7
2011-08-19 07:19:48 51°13.966 2°55.543 335.7 9.1 334 11.6
2011-08-19 07:19:52 51°13.975 2°55.536 335.4 9.1 334 11.7
2011-08-19 07:19:57 51°13.986 2°55.528 335.5 9.1 335 11.7
2011-08-19 07:20:04 51°14.002 2°55.516 336 9.1 334 -999
2011-08-19 07:20:08 51°14.011 2°55.509 336 9.1 335 -999
2011-08-19 07:20:13 51°14.023 2°55.5 336.2 9.1 335 -999
2011-08-19 07:20:18 51°14.034 2°55.492 336.8 9.2 335 -999
2011-08-19 07:20:24 51°14.048 2°55.481 336.2 9.2 334 11.5
2011-08-19 07:20:28 51°14.057 2°55.475 335.9 9.2 335 11.5
2011-08-19 07:20:33 51°14.069 2°55.466 336.4 9.3 336 -999
2011-08-19 07:20:39 51°14.083 2°55.455 336.1 9.3 334 -999
2011-08-19 07:20:44 51°14.095 2°55.446 335.5 9.4 334 11.4
2011-08-19 07:20:50 51°14.109 2°55.435 335.2 9.4 333 11.4
2011-08-19 07:20:54 51°14.118 2°55.428 334.7 9.5 333 11.5
2011-08-19 07:20:59 51°14.13 2°55.418 335 9.6 334 11.3
2011-08-19 07:21:04 51°14.142 2°55.408 335.1 9.6 332 11.3
2011-08-19 07:21:09 51°14.154 2°55.398 334.3 9.7 332 11.4
2011-08-19 07:21:15 51°14.168 2°55.386 333.9 9.8 332 -999
2011-08-19 07:21:20 51°14.18 2°55.375 332.9 9.8 330 11.3
2011-08-19 07:21:24 51°14.189 2°55.367 332.4 9.8 331 11.4
2011-08-19 07:21:29 51°14.201 2°55.356 332.5 9.8 331 11.4
2011-08-19 07:21:35 51°14.215 2°55.344 332.6 9.9 331 -999
2011-08-19 07:21:40 51°14.227 2°55.333 332.8 9.9 332 -999
2011-08-19 07:21:44 51°14.237 2°55.325 333.2 9.9 330 11.3
2011-08-19 07:21:51 51°14.253 2°55.309 332.4 10 330 -999
2011-08-19 07:21:56 51°14.265 2°55.298 331.7 10 330 -999
2011-08-19 07:22:00 51°14.275 2°55.289 331.8 9.9 330 11.1
2011-08-19 07:22:04 51°14.284 2°55.28 331.8 10 329 11.3
2011-08-19 07:22:10 51°14.298 2°55.266 330.5 10 328 10.6
2011-08-19 07:22:16 51°14.313 2°55.252 330.2 10.1 330 11.2
2011-08-19 07:22:21 51°14.325 2°55.241 330.6 10.1 327 -999
2011-08-19 07:22:25 51°14.335 2°55.231 330.4 10.1 327 11.3
2011-08-19 07:22:30 51°14.346 2°55.218 329.2 10.1 326 -999
2011-08-19 07:22:35 51°14.358 2°55.206 327.7 10.1 326 10.6
2011-08-19 07:22:41 51°14.371 2°55.191 327.4 10.1 327 11
2011-08-19 07:22:45 51°14.38 2°55.181 328.2 10.1 327 11.4
2011-08-19 07:22:50 51°14.392 2°55.169 328.4 10.2 327 11.1
2011-08-19 07:22:55 51°14.404 2°55.157 328.3 10.3 328 11.2
2011-08-19 07:23:00 51°14.417 2°55.145 328.9 10.4 329 11.3
2011-08-19 07:23:05 51°14.429 2°55.132 329.8 10.5 328 -999
2011-08-19 07:23:09 51°14.439 2°55.122 329.8 10.5 328 11.1
2011-08-19 07:23:14 51°14.451 2°55.11 329.3 10.6 327 11.1
2011-08-19 07:23:19 51°14.463 2°55.097 328.5 10.5 326 11.2
2011-08-19 07:23:24 51°14.475 2°55.084 327.6 10.6 327 11.7
2011-08-19 07:23:29 51°14.488 2°55.072 328.6 10.6 328 11.6
2011-08-19 07:23:34 51°14.5 2°55.059 329.3 10.6 327 11.6
2011-08-19 07:23:39 51°14.512 2°55.046 329.3 10.7 326 12
2011-08-19 07:23:43 51°14.522 2°55.035 328.8 10.8 326 11.9
2011-08-19 07:23:49 51°14.537 2°55.02 328.8 10.8 327 12
2011-08-19 07:23:53 51°14.547 2°55.009 329.2 10.7 326 12.2
2011-08-19 07:23:58 51°14.559 2°54.995 329.1 10.8 323 11.9
2011-08-19 07:24:03 51°14.571 2°54.979 327.3 11 320 12.1
2011-08-19 07:24:08 51°14.583 2°54.962 325.9 11.3 320 12.1
2011-08-19 07:24:13 51°14.596 2°54.948 327.4 11.4 325 12.1
2011-08-19 07:24:17 51°14.607 2°54.938 332.5 11.5 329 12.2
2011-08-19 07:24:22 51°14.621 2°54.927 337.6 11.6 333 12.1
2011-08-19 07:24:27 51°14.636 2°54.917 340.9 11.7 337 12.2
2011-08-19 07:24:32 51°14.652 2°54.908 345.3 11.8 340 12
2011-08-19 07:24:37 51°14.667 2°54.9 347.4 12 343 11.8
2011-08-19 07:24:41 51°14.68 2°54.895 350.1 11.9 346 11.6
2011-08-19 07:24:47 51°14.7 2°54.888 352.6 12 348 11.6
2011-08-19 07:24:52 51°14.716 2°54.884 354.6 12 351 11.4
2011-08-19 07:24:57 51°14.732 2°54.881 357.3 12 354 10.6
2011-08-19 07:25:02 51°14.749 2°54.88 0.6 11.9 357 10.2
2011-08-19 07:25:07 51°14.765 2°54.879 2.7 11.9 359 10.1
2011-08-19 07:25:12 51°14.782 2°54.881 4.9 11.8 2 10
2011-08-19 07:25:17 51°14.798 2°54.882 8.1 11.8 4 10.2
2011-08-19 07:25:22 51°14.814 2°54.886 10.4 11.7 7 10
2011-08-19 07:25:27 51°14.83 2°54.89 12.4 11.6 9 9.7
2011-08-19 07:25:32 51°14.846 2°54.895 14.6 11.7 12 10.1
2011-08-19 07:25:37 51°14.861 2°54.901 16.9 11.6 12 9.9
2011-08-19 07:25:42 51°14.877 2°54.906 16.9 11.7 11 9.7
2011-08-19 07:25:47 51°14.893 2°54.91 16.1 11.7 11 9.8
2011-08-19 07:25:52 51°14.909 2°54.916 15.4 11.7 12 9.8
2011-08-19 07:25:57 51°14.925 2°54.922 16.7 11.7 13 9.7
2011-08-19 07:26:02 51°14.94 2°54.929 18.2 11.7 16 9.6
2011-08-19 07:26:07 51°14.956 2°54.937 20.7 11.7 18 9.7
2011-08-19 07:26:12 51°14.971 2°54.945 22.3 11.7 20 9.5
2011-08-19 07:26:17 51°14.985 2°54.956 25.5 11.6 24 9.5
2011-08-19 07:26:22 51°15 2°54.968 28.4 11.6 26 9.6
2011-08-19 07:26:27 51°15.014 2°54.98 29.9 11.5 28 9.3
2011-08-19 07:26:32 51°15.028 2°54.992 31.8 11.6 28 9.2
2011-08-19 07:26:37 51°15.042 2°55.004 32.1 11.6 29 9.1
2011-08-19 07:26:42 51°15.056 2°55.017 32 11.6 29 9.1
2011-08-19 07:26:47 51°15.069 2°55.031 33.6 11.5 32 9.1
2011-08-19 07:26:52 51°15.083 2°55.043 34.5 11.6 30 9.2
2011-08-19 07:26:57 51°15.098 2°55.055 32.4 11.7 27 9.2
2011-08-19 07:27:02 51°15.112 2°55.067 31 11.7 27 9.2
2011-08-19 07:27:07 51°15.127 2°55.078 30.2 11.7 26 9.2
2011-08-19 07:27:12 51°15.142 2°55.088 28.7 11.6 24 8.7
2011-08-19 07:27:17 51°15.156 2°55.098 26.9 11.7 23 9
2011-08-19 07:27:21 51°15.169 2°55.105 25.2 11.6 21 8.8
2011-08-19 07:27:27 51°15.186 2°55.117 24.8 11.6 22 8.7
2011-08-19 07:27:32 51°15.202 2°55.126 24.5 11.7 21 8.6
2011-08-19 07:27:37 51°15.217 2°55.136 24.4 11.7 22 8.7
2011-08-19 07:27:42 51°15.231 2°55.146 25.2 11.7 22 8.7
2011-08-19 07:27:47 51°15.246 2°55.155 24.9 11.6 21 8.5
2011-08-19 07:27:52 51°15.261 2°55.166 24.7 11.6 23 8.6
2011-08-19 07:27:57 51°15.275 2°55.178 26.1 11.6 24 8.3
2011-08-19 07:28:02 51°15.289 2°55.189 27.1 11.6 25 8
2011-08-19 07:28:07 51°15.304 2°55.2 27.7 11.6 27 8.1
2011-08-19 07:28:12 51°15.318 2°55.212 29.1 11.6 29 8.4
2011-08-19 07:28:17 51°15.332 2°55.226 32.6 11.5 32 8.1
2011-08-19 07:28:21 51°15.342 2°55.237 34.9 11.5 35 8.4
2011-08-19 07:28:27 51°15.358 2°55.256 36.8 11.6 37 8.3
2011-08-19 07:28:32 51°15.37 2°55.272 40 11.5 40 8.2
2011-08-19 07:28:37 51°15.381 2°55.29 42.8 11.5 43 8.1
2011-08-19 07:28:42 51°15.393 2°55.308 44.3 11.6 45 8.3
2011-08-19 07:28:47 51°15.403 2°55.327 46.8 11.5 48 8.4
2011-08-19 07:28:52 51°15.413 2°55.347 49.6 11.5 51 8.4
2011-08-19 07:28:57 51°15.423 2°55.367 52.6 11.4 53 8.3
2011-08-19 07:29:01 51°15.43 2°55.384 54.8 11.5 56 8.5
2011-08-19 07:29:07 51°15.441 2°55.409 56.3 11.5 54 8.5
2011-08-19 07:29:12 51°15.451 2°55.429 54.6 11.4 52 8.5
2011-08-19 07:29:17 51°15.461 2°55.448 52.8 11.4 51 7.9
2011-08-19 07:29:21 51°15.469 2°55.464 52.3 11.5 50 8.5
2011-08-19 07:29:27 51°15.482 2°55.487 51.4 11.4 50 8.2
2011-08-19 07:29:32 51°15.492 2°55.506 50.8 11.4 49 8.2
2011-08-19 07:29:37 51°15.503 2°55.525 50.6 11.5 48 8.3
2011-08-19 07:29:42 51°15.513 2°55.544 49.6 11.5 47 8.5
2011-08-19 07:29:47 51°15.524 2°55.563 49.4 11.5 48 8.2
2011-08-19 07:29:52 51°15.534 2°55.583 50 11.5 49 8.2
2011-08-19 07:29:57 51°15.545 2°55.602 51.1 11.6 50 8.3
2011-08-19 07:30:02 51°15.555 2°55.622 51.1 11.5 50 8.2
2011-08-19 07:30:07 51°15.565 2°55.642 52.3 11.5 52 8.3
2011-08-19 07:30:12 51°15.574 2°55.662 53.1 11.5 52 8.4
2011-08-19 07:30:17 51°15.583 2°55.683 54.6 11.5 56 8.5
2011-08-19 07:30:22 51°15.593 2°55.704 55.2 11.6 53 8.4
2011-08-19 07:30:27 51°15.601 2°55.725 55.9 11.5 55 8.2
2011-08-19 07:30:32 51°15.611 2°55.745 55.6 11.4 54 8.3
2011-08-19 07:30:37 51°15.62 2°55.767 56.2 11.5 56 8.6
2011-08-19 07:30:42 51°15.63 2°55.787 55 11.5 53 8.6
2011-08-19 07:30:47 51°15.639 2°55.808 55 11.5 55 8.4
2011-08-19 07:30:52 51°15.648 2°55.828 54.8 11.5 54 8.2
2011-08-19 07:30:57 51°15.657 2°55.849 54.9 11.6 54 8.5
2011-08-19 07:31:02 51°15.668 2°55.869 54.1 11.5 52 8.2
2011-08-19 07:31:07 51°15.677 2°55.889 53.8 11.4 54 8.1
2011-08-19 07:31:12 51°15.687 2°55.909 54.2 11.4 52 8.1
2011-08-19 07:31:17 51°15.696 2°55.929 54.1 11.5 53 8.4
2011-08-19 07:31:22 51°15.706 2°55.949 53.8 11.4 52 8.3
2011-08-19 07:31:27 51°15.715 2°55.97 53.9 11.4 54 8.6
2011-08-19 07:31:32 51°15.724 2°55.99 54.4 11.4 54 8.6
2011-08-19 07:31:37 51°15.734 2°56.01 55.2 11.4 54 8.6
2011-08-19 07:31:42 51°15.743 2°56.03 54.7 11.5 54 8.5
2011-08-19 07:31:47 51°15.753 2°56.05 55.2 11.4 52 8.3
2011-08-19 07:31:52 51°15.762 2°56.069 53.6 11.4 52 8.2
2011-08-19 07:31:57 51°15.773 2°56.088 53.2 11.4 49 8.4
2011-08-19 07:32:02 51°15.783 2°56.108 51.1 11.4 49 8.6
2011-08-19 07:32:07 51°15.794 2°56.126 50.2 11.5 48 8.6
2011-08-19 07:32:12 51°15.805 2°56.145 49.5 11.4 47 8.5
2011-08-19 07:32:17 51°15.815 2°56.164 49.4 11.4 51 8.3
2011-08-19 07:32:22 51°15.825 2°56.183 51 11.5 49 8.5
2011-08-19 07:32:27 51°15.835 2°56.203 51.1 11.4 51 8.5
2011-08-19 07:32:32 51°15.845 2°56.223 51.6 11.4 50 8.5
2011-08-19 07:32:37 51°15.856 2°56.241 51.4 11.4 49 8.6
2011-08-19 07:32:42 51°15.866 2°56.26 50.2 11.5 48 8.8
2011-08-19 07:32:47 51°15.877 2°56.279 49.5 11.5 46 8.6
2011-08-19 07:32:52 51°15.888 2°56.297 48.5 11.4 47 8.6
2011-08-19 07:32:57 51°15.899 2°56.315 48.2 11.4 46 8.8
2011-08-19 07:33:02 51°15.91 2°56.334 47.6 11.4 47 8.5
2011-08-19 07:33:07 51°15.92 2°56.352 47.8 11.4 46 9
2011-08-19 07:33:12 51°15.931 2°56.371 48.4 11.3 48 9
2011-08-19 07:33:17 51°15.942 2°56.389 48.8 11.4 47 8.5
2011-08-19 07:33:22 51°15.951 2°56.409 49.5 11.4 51 8.6
2011-08-19 07:33:27 51°15.961 2°56.428 51.2 11.3 51 8.7
2011-08-19 07:33:32 51°15.97 2°56.448 52.7 11.4 53 9.1
2011-08-19 07:33:37 51°15.979 2°56.469 53.5 11.4 55 8.9
2011-08-19 07:33:42 51°15.988 2°56.49 55.8 11.4 56 8.8
2011-08-19 07:33:47 51°15.996 2°56.511 56.7 11.3 59 8.7
2011-08-19 07:33:52 51°16.004 2°56.533 58.7 11.4 60 8.9
2011-08-19 07:33:57 51°16.012 2°56.555 59.6 11.4 60 8.9
2011-08-19 07:34:02 51°16.019 2°56.577 60.7 11.2 62 8.9
2011-08-19 07:34:07 51°16.027 2°56.598 61.7 11.3 60 8.8
2011-08-19 07:34:12 51°16.036 2°56.619 59.5 11.3 56 8.8
2011-08-19 07:34:17 51°16.045 2°56.64 57.1 11.3 57 8.8
2011-08-19 07:34:22 51°16.053 2°56.66 56.8 11.2 56 8.8
2011-08-19 07:34:27 51°16.062 2°56.681 56.2 11.3 54 8.8
2011-08-19 07:34:32 51°16.072 2°56.701 54.8 11.2 54 8.6
2011-08-19 07:34:37 51°16.08 2°56.721 55.2 11.2 57 8.9
2011-08-19 07:34:42 51°16.088 2°56.743 56.2 11.3 59 9
2011-08-19 07:34:47 51°16.097 2°56.764 58.2 11.2 58 8.6
2011-08-19 07:34:52 51°16.104 2°56.785 59.3 11.2 61 8.6
2011-08-19 07:34:57 51°16.112 2°56.807 60.9 11.1 59 8.7
2011-08-19 07:35:01 51°16.118 2°56.824 60.3 11.3 62 8.9
2011-08-19 07:35:07 51°16.127 2°56.85 61.7 11.3 59 8.6
2011-08-19 07:35:12 51°16.135 2°56.872 60.9 11.3 60 8.8
2011-08-19 07:35:17 51°16.142 2°56.894 60.7 11.3 62 8.7
2011-08-19 07:35:22 51°16.15 2°56.915 61.5 11.1 60 8.5
2011-08-19 07:35:27 51°16.157 2°56.937 61.2 11.2 62 8.9
2011-08-19 07:35:32 51°16.165 2°56.959 61.8 11.2 59 9.1
2011-08-19 07:35:37 51°16.173 2°56.981 60.2 11.3 60 8.6
2011-08-19 07:35:42 51°16.18 2°57.002 60.6 11.2 60 8.4
2011-08-19 07:35:47 51°16.188 2°57.023 59.9 11.2 58 8.9
2011-08-19 07:35:52 51°16.196 2°57.044 59.5 11.2 59 8.8
2011-08-19 07:35:57 51°16.205 2°57.065 58.7 11.2 56 8.8
2011-08-19 07:36:02 51°16.214 2°57.086 57.4 11.2 57 8.8
2011-08-19 07:36:07 51°16.223 2°57.105 56.6 11.2 54 8.7
2011-08-19 07:36:12 51°16.232 2°57.126 55.9 11.2 56 9
2011-08-19 07:36:17 51°16.24 2°57.147 55.9 11.3 56 8.6
2011-08-19 07:36:22 51°16.249 2°57.168 57 11.3 57 8.8
2011-08-19 07:36:27 51°16.257 2°57.189 57.6 11.3 58 8.8
2011-08-19 07:36:32 51°16.265 2°57.21 58.8 11.2 60 8.7
2011-08-19 07:36:37 51°16.272 2°57.232 59.7 11.2 60 8.7
2011-08-19 07:36:42 51°16.28 2°57.253 60.4 11.3 61 9.2
2011-08-19 07:36:47 51°16.287 2°57.275 61.1 11.1 64 8.9
2011-08-19 07:36:52 51°16.294 2°57.296 61.4 11.1 60 9
2011-08-19 07:36:57 51°16.302 2°57.318 60.7 11.1 61 8.6
2011-08-19 07:37:02 51°16.31 2°57.339 60.6 11.2 60 8.9
2011-08-19 07:37:07 51°16.317 2°57.36 60.3 11.1 61 8.6
2011-08-19 07:37:12 51°16.324 2°57.382 60.9 11 62 8.9
2011-08-19 07:37:17 51°16.331 2°57.403 61.6 11 62 9.1
2011-08-19 07:37:21 51°16.337 2°57.42 61.1 11.1 60 9.3
2011-08-19 07:37:27 51°16.347 2°57.446 59.5 11.1 59 9
2011-08-19 07:37:32 51°16.356 2°57.466 58.8 11.1 55 8.9
2011-08-19 07:37:37 51°16.364 2°57.486 57 11 56 8.9
2011-08-19 07:37:42 51°16.373 2°57.507 56.3 11.1 56 9.1
2011-08-19 07:37:47 51°16.382 2°57.527 56.4 11.2 56 9.1
2011-08-19 07:37:52 51°16.391 2°57.547 55.9 11.2 54 8.9
2011-08-19 07:37:57 51°16.399 2°57.567 55.9 11.1 56 9
2011-08-19 07:38:02 51°16.408 2°57.588 55.9 11.1 56 9
2011-08-19 07:38:07 51°16.416 2°57.609 57.4 11.3 59 9.3
2011-08-19 07:38:12 51°16.424 2°57.63 58.5 11.1 58 9.1
2011-08-19 07:38:17 51°16.431 2°57.652 59.5 11.1 62 8.8
2011-08-19 07:38:22 51°16.439 2°57.673 60.6 11 59 8.7
2011-08-19 07:38:27 51°16.446 2°57.695 60.3 11.2 62 9.1
2011-08-19 07:38:32 51°16.454 2°57.716 61 11.1 59 9
2011-08-19 07:38:37 51°16.462 2°57.737 60.6 11.2 61 9.1
2011-08-19 07:38:41 51°16.468 2°57.754 60.8 11.1 59 9.1
2011-08-19 07:38:47 51°16.477 2°57.78 60 11.1 62 9.3
2011-08-19 07:38:52 51°16.485 2°57.801 60.8 11.1 60 9.4
2011-08-19 07:38:57 51°16.492 2°57.823 60.8 11.2 61 9.1
2011-08-19 07:39:02 51°16.5 2°57.844 60.4 11.2 59 9
2011-08-19 07:39:07 51°16.508 2°57.866 60.1 11.2 60 9.2
2011-08-19 07:39:12 51°16.516 2°57.887 59.9 11.1 59 9.3
2011-08-19 07:39:17 51°16.524 2°57.908 59.6 11.2 60 9.5
2011-08-19 07:39:22 51°16.532 2°57.929 58.9 11.2 57 9.2
2011-08-19 07:39:27 51°16.54 2°57.95 58.3 11.1 57 9.7
2011-08-19 07:39:32 51°16.549 2°57.97 56.7 11.1 54 9.6
2011-08-19 07:39:37 51°16.558 2°57.99 56 11.1 55 9.3
2011-08-19 07:39:41 51°16.566 2°58.005 54.6 11.2 52 9.4
2011-08-19 07:39:47 51°16.577 2°58.029 54.3 11.1 54 9
2011-08-19 07:39:52 51°16.586 2°58.049 54.2 11.1 53 9.2
2011-08-19 07:39:57 51°16.595 2°58.069 54.5 11.1 54 9.5
2011-08-19 07:40:01 51°16.602 2°58.084 54.1 11.2 54 9.6
2011-08-19 07:40:07 51°16.613 2°58.108 54.5 11.1 53 9
2011-08-19 07:40:12 51°16.623 2°58.128 54.4 11.2 54 9.1
2011-08-19 07:40:17 51°16.632 2°58.148 54.2 11.2 53 9.3
2011-08-19 07:40:22 51°16.641 2°58.167 54.5 11.1 53 9
2011-08-19 07:40:27 51°16.65 2°58.188 54.8 11.2 55 9.2
2011-08-19 07:40:32 51°16.659 2°58.208 55.4 11.2 55 9.4
2011-08-19 07:40:37 51°16.667 2°58.229 56.7 11.2 57 9.5
2011-08-19 07:40:41 51°16.674 2°58.245 57.3 11.2 58 9.5
2011-08-19 07:40:47 51°16.683 2°58.271 59.1 11.2 61 9.5
2011-08-19 07:40:52 51°16.691 2°58.293 60.3 11.2 59 9.3
2011-08-19 07:40:57 51°16.698 2°58.315 61 11.2 62 9.3
2011-08-19 07:41:02 51°16.705 2°58.336 61.3 11.1 61 9.5
2011-08-19 07:41:07 51°16.713 2°58.358 62.2 11.2 61 9.5
2011-08-19 07:41:12 51°16.721 2°58.38 61.1 11.2 60 9.4
2011-08-19 07:41:17 51°16.728 2°58.401 61.4 11.2 62 9.1
2011-08-19 07:41:22 51°16.736 2°58.423 60.9 11.1 59 9.3
2011-08-19 07:41:27 51°16.744 2°58.444 59.9 11.2 59 9.1
2011-08-19 07:41:32 51°16.753 2°58.464 58.2 11.2 55 9.7
2011-08-19 07:41:37 51°16.762 2°58.485 56 11.2 56 9.5
2011-08-19 07:41:42 51°16.771 2°58.505 55.5 11.2 54 9.5
2011-08-19 07:41:47 51°16.781 2°58.524 53.6 11.3 52 9.5
2011-08-19 07:41:52 51°16.79 2°58.543 53.2 11.1 52 9.3
2011-08-19 07:41:57 51°16.8 2°58.562 50.9 11.2 50 9.1
2011-08-19 07:42:01 51°16.808 2°58.578 52 11.3 53 9.6
2011-08-19 07:42:07 51°16.819 2°58.601 52.3 11.2 52 9.5
2011-08-19 07:42:12 51°16.829 2°58.621 52.7 11.2 53 9.4
2011-08-19 07:42:17 51°16.838 2°58.641 53.2 11.3 53 9.6
2011-08-19 07:42:22 51°16.847 2°58.661 53.6 11.3 53 9.5
2011-08-19 07:42:27 51°16.857 2°58.68 53.7 11.3 53 9.6
2011-08-19 07:42:32 51°16.866 2°58.701 53.8 11.3 56 9.4
2011-08-19 07:42:37 51°16.875 2°58.722 55.2 11.3 55 9.6
2011-08-19 07:42:42 51°16.882 2°58.743 56 11.4 60 9.9
2011-08-19 07:42:47 51°16.891 2°58.764 57.8 11.3 57 9.1
2011-08-19 07:42:52 51°16.899 2°58.785 58.5 11.2 59 9
2011-08-19 07:42:57 51°16.908 2°58.806 58.6 11.2 58 9.3
2011-08-19 07:43:02 51°16.916 2°58.827 58.8 11.2 59 9.3
2011-08-19 07:43:07 51°16.924 2°58.848 58.4 11.2 57 9.8
2011-08-19 07:43:12 51°16.933 2°58.868 57.6 11.1 55 9.4
2011-08-19 07:43:17 51°16.942 2°58.889 56.2 11.2 54 9.7
2011-08-19 07:43:22 51°16.952 2°58.908 54.4 11.2 53 9.6
2011-08-19 07:43:27 51°16.961 2°58.928 54.3 11.2 54 9.5
2011-08-19 07:43:32 51°16.97 2°58.948 54.1 11.3 52 9.4
2011-08-19 07:43:37 51°16.979 2°58.969 54 11.3 56 9.7
2011-08-19 07:43:42 51°16.988 2°58.989 54.6 11.2 54 9.3
2011-08-19 07:43:47 51°16.996 2°59.01 55.9 11.2 58 9.6
2011-08-19 07:43:52 51°17.005 2°59.031 57.8 11.2 58 9.4
2011-08-19 07:43:57 51°17.013 2°59.052 58.2 11.4 58 9.3
2011-08-19 07:44:02 51°17.022 2°59.073 58 11.2 57 9.3
2011-08-19 07:44:07 51°17.03 2°59.093 57.4 11.2 56 9.4
2011-08-19 07:44:12 51°17.039 2°59.114 56.3 11.2 54 9.3
2011-08-19 07:44:17 51°17.048 2°59.134 55.3 11.3 56 9.2
2011-08-19 07:44:22 51°17.058 2°59.154 55.3 11.2 52 9.3
2011-08-19 07:44:27 51°17.067 2°59.175 53.9 11.3 55 9.8
2011-08-19 07:44:32 51°17.076 2°59.194 54.2 11.2 52 9.6
2011-08-19 07:44:37 51°17.086 2°59.214 53.4 11.3 53 9.5
2011-08-19 07:44:42 51°17.095 2°59.234 53.6 11.3 54 9.5
2011-08-19 07:44:47 51°17.104 2°59.254 54.3 11.3 55 9.4
2011-08-19 07:44:52 51°17.113 2°59.275 55.4 11.3 56 9.6
2011-08-19 07:44:57 51°17.121 2°59.296 57.6 11.4 59 9.5
2011-08-19 07:45:02 51°17.129 2°59.318 58.3 11.3 58 9.3
2011-08-19 07:45:07 51°17.137 2°59.339 58.6 11.3 60 9.4
2011-08-19 07:45:12 51°17.145 2°59.361 60.3 11.3 60 9.4
2011-08-19 07:45:17 51°17.153 2°59.382 60.3 11.2 59 9.1
2011-08-19 07:45:22 51°17.161 2°59.404 60.2 11.3 60 9.5
2011-08-19 07:45:27 51°17.169 2°59.426 60 11.4 60 9.4
2011-08-19 07:45:32 51°17.177 2°59.447 60.6 11.2 58 9.5
2011-08-19 07:45:37 51°17.185 2°59.468 58.9 11.3 58 9.3
2011-08-19 07:45:42 51°17.193 2°59.489 59.2 11.1 57 8.9
2011-08-19 07:45:47 51°17.201 2°59.51 57.9 11.2 58 9.2
2011-08-19 07:45:52 51°17.21 2°59.531 58.4 11.2 57 9.1
2011-08-19 07:45:57 51°17.219 2°59.552 57.4 11.3 55 9.4
2011-08-19 07:46:02 51°17.228 2°59.572 56.4 11.3 55 9.4
2011-08-19 07:46:07 51°17.237 2°59.592 56 11.2 53 9.3
2011-08-19 07:46:12 51°17.246 2°59.612 55.1 11.2 54 9.1
2011-08-19 07:46:17 51°17.256 2°59.631 54.9 11.2 52 9
2011-08-19 07:46:21 51°17.263 2°59.647 53.8 11.3 53 9.1
2011-08-19 07:46:27 51°17.274 2°59.671 53.7 11.1 52 9.2
2011-08-19 07:46:32 51°17.284 2°59.691 53.1 11.2 53 8.8
2011-08-19 07:46:37 51°17.294 2°59.71 52.8 11.2 50 9
2011-08-19 07:46:41 51°17.301 2°59.726 52.9 11.3 54 9
2011-08-19 07:46:47 51°17.312 2°59.75 53.9 11.3 53 9
2011-08-19 07:46:52 51°17.321 2°59.77 54.5 11.3 54 9.3
2011-08-19 07:46:57 51°17.33 2°59.79 55 11.2 53 9.1
2011-08-19 07:47:02 51°17.339 2°59.81 54.5 11.2 55 9.1
2011-08-19 07:47:07 51°17.348 2°59.831 55.7 11.2 54 9
2011-08-19 07:47:12 51°17.357 2°59.851 55.7 11.2 55 9.2
2011-08-19 07:47:17 51°17.366 2°59.872 56.1 11.2 57 9.3
2011-08-19 07:47:21 51°17.373 2°59.887 56.7 11.2 54 9.2
2011-08-19 07:47:27 51°17.384 2°59.912 56.1 11.2 56 9.2
2011-08-19 07:47:32 51°17.393 2°59.932 56.2 11.2 54 9.2
2011-08-19 07:47:37 51°17.402 2°59.953 55.3 11.2 56 9
2011-08-19 07:47:42 51°17.411 2°59.973 56 11.2 54 9.3
2011-08-19 07:47:47 51°17.42 2°59.993 55.6 11.2 56 9.1
2011-08-19 07:47:52 51°17.429 3°0.014 56.5 11.3 55 9.4
2011-08-19 07:47:57 51°17.437 3°0.035 56.4 11.2 58 9
2011-08-19 07:48:02 51°17.445 3°0.056 58.2 11.2 60 9.4
2011-08-19 07:48:07 51°17.453 3°0.078 59.2 11.1 62 8.8
2011-08-19 07:48:12 51°17.46 3°0.099 61.6 11.2 60 8.9
2011-08-19 07:48:17 51°17.467 3°0.122 61.3 11.2 63 9.5
2011-08-19 07:48:22 51°17.474 3°0.143 61.8 11.2 63 9.5
2011-08-19 07:48:27 51°17.482 3°0.165 61.9 11.3 62 9.3
2011-08-19 07:48:32 51°17.489 3°0.187 62.5 11.2 63 9.2
2011-08-19 07:48:37 51°17.496 3°0.209 62.2 11.3 62 9.4
2011-08-19 07:48:42 51°17.504 3°0.231 62.2 11.2 63 9.3
2011-08-19 07:48:47 51°17.511 3°0.253 62.2 11.2 61 9.2
2011-08-19 07:48:52 51°17.519 3°0.275 61.8 11.3 60 9.1
2011-08-19 07:48:57 51°17.526 3°0.296 61 11.2 60 9.1
2011-08-19 07:49:02 51°17.534 3°0.318 61 11.2 62 9.3
2011-08-19 07:49:07 51°17.541 3°0.34 61.8 11.3 61 9.4
2011-08-19 07:49:12 51°17.549 3°0.362 61.4 11.2 62 9.3
2011-08-19 07:49:17 51°17.556 3°0.383 62 11.3 60 9
2011-08-19 07:49:22 51°17.564 3°0.405 61.1 11.2 60 9
2011-08-19 07:49:27 51°17.571 3°0.426 60.8 11.1 61 9.2
2011-08-19 07:49:32 51°17.58 3°0.447 60.8 11.2 60 9.3
2011-08-19 07:49:37 51°17.587 3°0.469 60.6 11.2 62 9.2
2011-08-19 07:49:42 51°17.595 3°0.49 60.8 11.1 60 9.1
2011-08-19 07:49:47 51°17.602 3°0.512 60.7 11.2 61 9.3
2011-08-19 07:49:52 51°17.61 3°0.533 60.3 11.2 59 9
2011-08-19 07:49:57 51°17.618 3°0.555 60.6 11.2 60 9.2
2011-08-19 07:50:02 51°17.626 3°0.576 60 11.1 59 9.1
2011-08-19 07:50:07 51°17.634 3°0.597 60 11.1 59 8.9
2011-08-19 07:50:12 51°17.642 3°0.618 59.7 11.2 59 9
2011-08-19 07:50:17 51°17.65 3°0.639 59 11.2 58 9.3
2011-08-19 07:50:22 51°17.659 3°0.66 58.5 11.1 56 9.1
2011-08-19 07:50:27 51°17.667 3°0.68 58 11.1 57 9.3
2011-08-19 07:50:32 51°17.677 3°0.7 56.5 11.2 52 9.3
2011-08-19 07:50:37 51°17.686 3°0.72 55.2 11.2 54 9.3
2011-08-19 07:50:42 51°17.696 3°0.739 53.6 11.2 51 9.1
2011-08-19 07:50:47 51°17.705 3°0.759 53.5 11.2 53 9.4
2011-08-19 07:50:52 51°17.715 3°0.778 53.3 11.2 50 9.5
2011-08-19 07:50:57 51°17.725 3°0.797 52.4 11.2 51 9.2
2011-08-19 07:51:01 51°17.732 3°0.813 52.5 11.1 51 9
2011-08-19 07:51:07 51°17.745 3°0.835 52.2 11.1 50 9.3
2011-08-19 07:51:12 51°17.754 3°0.854 51.6 11.1 51 9.3
2011-08-19 07:51:17 51°17.764 3°0.873 52.4 11.2 51 9.3
2011-08-19 07:51:22 51°17.774 3°0.893 52.4 11.2 51 9.4
2011-08-19 07:51:27 51°17.784 3°0.912 52.1 11.1 52 9.2
2011-08-19 07:51:32 51°17.794 3°0.931 53.1 11.1 51 8.9
2011-08-19 07:51:37 51°17.803 3°0.95 52.7 11.1 51 9.1
2011-08-19 07:51:42 51°17.812 3°0.97 53.1 11.1 53 9.3
2011-08-19 07:51:47 51°17.822 3°0.99 53.9 11.2 53 9.3
2011-08-19 07:51:52 51°17.831 3°1.009 54.4 11.2 54 9.2
2011-08-19 07:51:57 51°17.84 3°1.029 55.2 11.1 54 8.7
2011-08-19 07:52:02 51°17.849 3°1.05 56 11.2 56 9.2
2011-08-19 07:52:07 51°17.857 3°1.071 55.9 11.2 56 9.3
2011-08-19 07:52:12 51°17.865 3°1.092 57.7 11.2 59 9.2
2011-08-19 07:52:17 51°17.873 3°1.114 59.5 11.3 60 9.3
2011-08-19 07:52:22 51°17.881 3°1.135 60.3 11.3 61 9.3
2011-08-19 07:52:27 51°17.888 3°1.157 62 11.2 62 9.5
2011-08-19 07:52:32 51°17.895 3°1.179 62 11.1 61 9.2
2011-08-19 07:52:37 51°17.901 3°1.2 61.9 11.2 62 9.3
2011-08-19 07:52:42 51°17.91 3°1.222 61.5 11.2 60 9.5
2011-08-19 07:52:47 51°17.917 3°1.243 61.3 11.2 61 9.2
2011-08-19 07:52:52 51°17.926 3°1.264 60.3 11.1 58 9.1
2011-08-19 07:52:57 51°17.934 3°1.285 59.8 11.2 58 9.1
2011-08-19 07:53:01 51°17.941 3°1.301 58.9 11.1 56 8.3
2011-08-19 07:53:07 51°17.952 3°1.325 57.9 11 55 8.7
2011-08-19 07:53:12 51°17.961 3°1.345 56.5 11 55 9.1
2011-08-19 07:53:17 51°17.969 3°1.365 55.9 11.1 55 9.3
2011-08-19 07:53:22 51°17.979 3°1.385 55.2 11.1 53 9
2011-08-19 07:53:27 51°17.988 3°1.404 54.1 11 52 9
2011-08-19 07:53:32 51°17.998 3°1.423 53.8 11.1 53 9.3
2011-08-19 07:53:37 51°18.008 3°1.442 53.8 11.1 51 9.2
2011-08-19 07:53:42 51°18.017 3°1.462 53.7 11.2 53 9.1
2011-08-19 07:53:47 51°18.026 3°1.482 54.1 11.3 54 9.1
2011-08-19 07:53:52 51°18.035 3°1.502 55.2 11.2 54 8.8
2011-08-19 07:53:57 51°18.044 3°1.523 56 11.1 57 8.6
2011-08-19 07:54:02 51°18.052 3°1.544 58.1 11.1 58 8.7
2011-08-19 07:54:07 51°18.06 3°1.565 59 11.1 59 8.7
2011-08-19 07:54:12 51°18.067 3°1.586 60.6 11 60 8.8
2011-08-19 07:54:17 51°18.075 3°1.608 60.7 11.2 59 9.3
2011-08-19 07:54:22 51°18.082 3°1.629 60.8 11.2 60 9.2
2011-08-19 07:54:27 51°18.09 3°1.65 61.6 11.1 61 9.1
2011-08-19 07:54:32 51°18.098 3°1.672 61 11.2 59 9.2
2011-08-19 07:54:37 51°18.105 3°1.693 60.4 11.2 61 9.4
2011-08-19 07:54:42 51°18.113 3°1.714 60.2 11.1 58 9.1
2011-08-19 07:54:47 51°18.121 3°1.736 60.2 11.1 59 9.1
2011-08-19 07:54:52 51°18.129 3°1.757 59.5 11.2 58 9.2
2011-08-19 07:54:57 51°18.138 3°1.777 59 11.2 56 9.1
2011-08-19 07:55:02 51°18.147 3°1.797 57.3 11.1 54 9.2
2011-08-19 07:55:07 51°18.157 3°1.817 55.5 11.2 54 9.3
2011-08-19 07:55:12 51°18.166 3°1.836 54.3 11.2 51 9.3
2011-08-19 07:55:17 51°18.175 3°1.856 54.4 11.1 55 9
2011-08-19 07:55:22 51°18.186 3°1.875 53.9 11.2 50 8.9
2011-08-19 07:55:27 51°18.194 3°1.895 54.2 11.2 55 9
2011-08-19 07:55:32 51°18.204 3°1.914 54 11.1 49 9.1
2011-08-19 07:55:37 51°18.213 3°1.934 53.4 11.2 55 9
2011-08-19 07:55:42 51°18.223 3°1.953 54.5 11.1 52 8.9
2011-08-19 07:55:47 51°18.232 3°1.973 54.2 11.1 54 8.9
2011-08-19 07:55:52 51°18.242 3°1.993 54.7 11.1 53 8.9
2011-08-19 07:55:57 51°18.251 3°2.012 54.5 11.1 51 8.6
2011-08-19 07:56:02 51°18.261 3°2.032 54.3 11.1 54 8.6
2011-08-19 07:56:07 51°18.27 3°2.051 54.2 11.1 52 8.6
2011-08-19 07:56:12 51°18.279 3°2.071 54.7 11.1 55 8.8
2011-08-19 07:56:17 51°18.288 3°2.091 55.4 11.2 54 8.9
2011-08-19 07:56:22 51°18.297 3°2.111 56 11.1 55 8.9
2011-08-19 07:56:27 51°18.306 3°2.131 56 11 55 8.9
2011-08-19 07:56:32 51°18.315 3°2.151 55.9 11.1 54 8.6
2011-08-19 07:56:37 51°18.324 3°2.171 55.3 11.1 53 8.6
2011-08-19 07:56:42 51°18.334 3°2.19 54.7 11.1 54 8.6
2011-08-19 07:56:47 51°18.343 3°2.21 55.2 11.1 53 8.7
2011-08-19 07:56:52 51°18.352 3°2.229 54 11.1 53 8.7
2011-08-19 07:56:57 51°18.362 3°2.249 55 11.2 53 8.6
2011-08-19 07:57:02 51°18.371 3°2.269 54.5 11.2 53 8.6
2011-08-19 07:57:07 51°18.38 3°2.289 54.8 11.2 55 8.5
2011-08-19 07:57:12 51°18.389 3°2.308 55.3 11.1 52 8.6
2011-08-19 07:57:17 51°18.397 3°2.329 55.9 11.1 57 8.6
2011-08-19 07:57:22 51°18.406 3°2.349 57.7 11.1 57 8.5
2011-08-19 07:57:27 51°18.414 3°2.37 58.9 11.2 60 8.8
2011-08-19 07:57:32 51°18.421 3°2.392 60.3 11.1 63 8.7
2011-08-19 07:57:37 51°18.428 3°2.414 62.5 11.1 64 8.4
2011-08-19 07:57:41 51°18.433 3°2.432 64.7 11.1 65 8.5
2011-08-19 07:57:47 51°18.441 3°2.459 65.4 11 64 8.3
2011-08-19 07:57:52 51°18.445 3°2.481 66.5 11.1 69 8.6
2011-08-19 07:57:57 51°18.451 3°2.504 67.2 11.2 66 8.6
2011-08-19 07:58:02 51°18.457 3°2.527 67 11.1 67 8.4
2011-08-19 07:58:07 51°18.462 3°2.55 67.1 11.1 69 8.6
2011-08-19 07:58:12 51°18.468 3°2.573 67.6 11 66 8.6
2011-08-19 07:58:17 51°18.474 3°2.595 67.3 11.1 67 8.2
2011-08-19 07:58:22 51°18.48 3°2.618 67 11.1 67 8.4
2011-08-19 07:58:27 51°18.487 3°2.64 66.1 11.1 65 8.3
2011-08-19 07:58:32 51°18.493 3°2.663 66.5 11.1 66 8.5
2011-08-19 07:58:37 51°18.5 3°2.685 65.4 11.1 64 8.5
2011-08-19 07:58:42 51°18.506 3°2.707 66 11.1 66 8.3
2011-08-19 07:58:47 51°18.512 3°2.729 65.6 11.1 63 8.6
2011-08-19 07:58:52 51°18.518 3°2.752 65.2 11.1 67 8.5
2011-08-19 07:58:57 51°18.525 3°2.774 66.1 11.1 65 8.9
2011-08-19 07:59:02 51°18.531 3°2.797 65.5 11 65 8.6
2011-08-19 07:59:07 51°18.537 3°2.818 65.2 11 64 8.4
2011-08-19 07:59:12 51°18.544 3°2.84 64.2 11 63 8.7
2011-08-19 07:59:17 51°18.552 3°2.862 63.2 11 62 8.6
2011-08-19 07:59:22 51°18.559 3°2.883 62.2 11 60 8.7
2011-08-19 07:59:27 51°18.567 3°2.903 60.7 11 58 8.7
2011-08-19 07:59:32 51°18.575 3°2.925 60.1 11 59 8.6
2011-08-19 07:59:37 51°18.583 3°2.945 59 11 57 8.1
2011-08-19 07:59:41 51°18.589 3°2.961 59.2 11 58 8.5
2011-08-19 07:59:47 51°18.6 3°2.986 58.6 11.1 57 8.6
2011-08-19 07:59:52 51°18.608 3°3.007 59.1 11 59 8.6
2011-08-19 07:59:57 51°18.615 3°3.028 59.8 10.9 61 8.3
2011-08-19 08:00:02 51°18.622 3°3.05 61.1 11 61 8.6
2011-08-19 08:00:07 51°18.629 3°3.072 62.7 11 63 8.4
2011-08-19 08:00:12 51°18.636 3°3.093 63.1 11 62 8.5
2011-08-19 08:00:17 51°18.644 3°3.114 62.7 11 60 8.3
2011-08-19 08:00:22 51°18.651 3°3.136 62.8 10.9 62 8.2
2011-08-19 08:00:27 51°18.658 3°3.156 62 10.9 59 8.5
2011-08-19 08:00:32 51°18.666 3°3.177 60.3 10.9 58 8.7
2011-08-19 08:00:37 51°18.674 3°3.198 60.3 11 61 8.7
2011-08-19 08:00:42 51°18.682 3°3.219 59.5 11 57 8.7
2011-08-19 08:00:47 51°18.69 3°3.24 59.6 10.9 60 8.4
2011-08-19 08:00:52 51°18.698 3°3.26 59.8 11 58 8.6
2011-08-19 08:00:57 51°18.706 3°3.281 59.4 11 59 8.6
2011-08-19 08:01:02 51°18.714 3°3.302 59.4 11 58 8.6
2011-08-19 08:01:07 51°18.722 3°3.323 59.6 11 59 8.4
2011-08-19 08:01:12 51°18.73 3°3.343 59.2 10.9 58 8.5
2011-08-19 08:01:17 51°18.738 3°3.364 59.5 10.9 59 8.5
2011-08-19 08:01:22 51°18.746 3°3.384 59.6 10.9 58 8.3
2011-08-19 08:01:27 51°18.754 3°3.405 59.8 10.9 59 8.3
2011-08-19 08:01:32 51°18.762 3°3.426 59.8 11 59 8.5
2011-08-19 08:01:37 51°18.769 3°3.447 60.5 11 62 8.5
2011-08-19 08:01:42 51°18.776 3°3.469 62.3 11 64 8.6
2011-08-19 08:01:47 51°18.782 3°3.492 64.5 11 67 8.4
2011-08-19 08:01:52 51°18.789 3°3.513 65.8 11 64 8.4
2011-08-19 08:01:57 51°18.795 3°3.536 66.1 11 66 8.3
2011-08-19 08:02:02 51°18.801 3°3.558 66.6 11 66 8.2
2011-08-19 08:02:07 51°18.807 3°3.58 66.7 11 67 8.2
2011-08-19 08:02:12 51°18.813 3°3.602 66.8 11 65 8.5
2011-08-19 08:02:17 51°18.82 3°3.625 66.5 11 66 8.4
2011-08-19 08:02:22 51°18.827 3°3.646 66 11 64 8.4
2011-08-19 08:02:27 51°18.834 3°3.668 64 11 64 8.5
2011-08-19 08:02:32 51°18.841 3°3.689 63.7 11 61 8.2
2011-08-19 08:02:37 51°18.848 3°3.711 63.2 11 62 8.4
2011-08-19 08:02:42 51°18.856 3°3.732 63 11 62 8.4
2011-08-19 08:02:47 51°18.863 3°3.753 62.3 11 61 8.3
2011-08-19 08:02:52 51°18.871 3°3.774 62.2 11 59 8.4
2011-08-19 08:02:57 51°18.879 3°3.795 60.7 11 58 8.4
2011-08-19 08:03:02 51°18.887 3°3.815 59.7 10.9 58 8.3
2011-08-19 08:03:07 51°18.896 3°3.835 59.2 10.9 56 8.2
2011-08-19 08:03:12 51°18.903 3°3.855 58.5 10.9 56 8.2
2011-08-19 08:03:17 51°18.912 3°3.876 58.2 11 57 8.5
2011-08-19 08:03:22 51°18.92 3°3.896 58 11 55 8.3
2011-08-19 08:03:27 51°18.929 3°3.916 57.6 11 56 8.5
2011-08-19 08:03:32 51°18.938 3°3.936 57.3 10.9 55 8.5
2011-08-19 08:03:37 51°18.946 3°3.956 56.7 10.9 55 8.1
2011-08-19 08:03:42 51°18.955 3°3.975 56.9 10.9 54 8.3
2011-08-19 08:03:47 51°18.964 3°3.994 56.6 10.8 51 8
2011-08-19 08:03:52 51°18.975 3°4.012 53.7 10.9 48 8.2
2011-08-19 08:03:57 51°18.985 3°4.029 51.7 10.9 46 8.2
2011-08-19 08:04:02 51°18.996 3°4.046 49 10.9 44 8.2
2011-08-19 08:04:07 51°19.007 3°4.063 47.5 10.8 44 8.2
2011-08-19 08:04:12 51°19.018 3°4.079 46.9 10.8 43 8
2011-08-19 08:04:17 51°19.029 3°4.095 46.5 10.8 43 5.8
2011-08-19 08:04:21 51°19.037 3°4.109 46.8 10.9 44 8.3
2011-08-19 08:04:27 51°19.051 3°4.129 46.9 10.8 44 7.9
2011-08-19 08:04:32 51°19.061 3°4.145 47.2 10.8 44 8
2011-08-19 08:04:37 51°19.072 3°4.162 47.7 10.8 44 6
2011-08-19 08:04:42 51°19.083 3°4.179 47.7 10.9 43 8.1
2011-08-19 08:04:47 51°19.093 3°4.197 48 10.9 47 8.2
2011-08-19 08:04:52 51°19.104 3°4.214 49.5 10.9 48 8.2
2011-08-19 08:04:57 51°19.113 3°4.233 51.3 10.9 51 8.1
2011-08-19 08:05:02 51°19.123 3°4.251 52.7 10.9 50 8
2011-08-19 08:05:07 51°19.132 3°4.271 54.5 10.9 53 7.9
2011-08-19 08:05:13 51°19.143 3°4.293 54.9 10.9 52 8
2011-08-19 08:05:17 51°19.15 3°4.309 54.9 10.9 54 8.1
2011-08-19 08:05:22 51°19.16 3°4.328 55.2 11 52 6
2011-08-19 08:05:27 51°19.169 3°4.347 54.9 10.9 51 8.1
2011-08-19 08:05:32 51°19.179 3°4.365 54.2 10.8 49 8
2011-08-19 08:05:37 51°19.19 3°4.383 52 10.9 48 8.1
2011-08-19 08:05:42 51°19.2 3°4.4 50.7 11 44 8.1
2011-08-19 08:05:47 51°19.211 3°4.416 48.6 10.9 44 7.9
2011-08-19 08:05:52 51°19.222 3°4.433 46.9 10.9 43 8
2011-08-19 08:05:57 51°19.233 3°4.449 46.5 10.9 43 8.2
2011-08-19 08:06:02 51°19.245 3°4.465 44.7 10.9 41 7.8
2011-08-19 08:06:07 51°19.256 3°4.482 44.8 10.9 43 5.7
2011-08-19 08:06:12 51°19.268 3°4.497 44.6 11 39 5.8
2011-08-19 08:06:17 51°19.279 3°4.513 43.6 10.9 42 7.5
2011-08-19 08:06:22 51°19.291 3°4.528 43.7 10.9 40 8
2011-08-19 08:06:27 51°19.302 3°4.544 43.5 10.9 41 7.6
2011-08-19 08:06:32 51°19.314 3°4.56 44.4 10.9 40 7.7
2011-08-19 08:06:37 51°19.326 3°4.575 43.9 10.9 40 7.4
2011-08-19 08:06:41 51°19.335 3°4.588 43.5 10.9 40 7.8
2011-08-19 08:06:47 51°19.348 3°4.607 43.7 10.9 42 7.5
2011-08-19 08:06:52 51°19.36 3°4.623 44.4 11 41 7.6
2011-08-19 08:06:57 51°19.371 3°4.639 44.4 11 42 7.6
2011-08-19 08:07:02 51°19.382 3°4.655 45.1 10.9 43 7.3
2011-08-19 08:07:07 51°19.393 3°4.671 45.5 10.9 42 7.4
2011-08-19 08:07:12 51°19.404 3°4.688 45.6 10.9 43 7.5
2011-08-19 08:07:17 51°19.415 3°4.704 45.7 10.9 43 7.5
2011-08-19 08:07:22 51°19.426 3°4.72 46.3 10.9 43 7.6
2011-08-19 08:07:27 51°19.437 3°4.737 46.2 10.9 43 7.4
2011-08-19 08:07:32 51°19.448 3°4.752 46 10.8 42 7.2
2011-08-19 08:07:37 51°19.459 3°4.769 46.1 10.8 42 5.6
2011-08-19 08:07:42 51°19.47 3°4.785 46.1 10.9 43 7.3
2011-08-19 08:07:47 51°19.482 3°4.801 45.9 10.9 42 7.3
2011-08-19 08:07:52 51°19.492 3°4.817 45.8 10.8 43 7.5
2011-08-19 08:07:57 51°19.503 3°4.834 46.6 10.8 43 7.5
2011-08-19 08:08:02 51°19.514 3°4.85 46.8 10.8 43 7.5
2011-08-19 08:08:07 51°19.525 3°4.866 46.6 10.8 42 7.5
2011-08-19 08:08:12 51°19.537 3°4.882 46 10.8 42 7.7
2011-08-19 08:08:17 51°19.548 3°4.899 45.9 10.8 43 7.6
2011-08-19 08:08:22 51°19.559 3°4.915 46.1 10.8 42 7.6
2011-08-19 08:08:27 51°19.569 3°4.931 46.1 10.8 44 5.7
2011-08-19 08:08:32 51°19.58 3°4.948 47.1 10.8 45 7.5
2011-08-19 08:08:37 51°19.59 3°4.966 48.9 10.8 49 7.7
2011-08-19 08:08:42 51°19.599 3°4.984 51.3 10.7 50 7.6
2011-08-19 08:08:47 51°19.608 3°5.004 54.1 10.8 54 7.7
2011-08-19 08:08:52 51°19.618 3°5.021 54.3 10.7 50 7.6
2011-08-19 08:08:57 51°19.627 3°5.04 54 10.7 52 7.5
2011-08-19 08:09:01 51°19.635 3°5.054 54 10.8 49 7.5
2011-08-19 08:09:07 51°19.646 3°5.077 53.6 10.8 52 7.8
2011-08-19 08:09:12 51°19.656 3°5.096 53.9 10.8 51 7.7
2011-08-19 08:09:17 51°19.665 3°5.114 53.6 10.7 52 7.6
2011-08-19 08:09:22 51°19.674 3°5.133 54.6 10.8 51 8
2011-08-19 08:09:27 51°19.684 3°5.151 52.2 10.8 50 7.8
2011-08-19 08:09:33 51°19.695 3°5.173 53.2 10.8 51 7.6
2011-08-19 08:09:37 51°19.703 3°5.188 53.8 10.9 52 7.6
2011-08-19 08:09:42 51°19.712 3°5.207 54.4 10.8 50 7.5
2011-08-19 08:09:47 51°19.722 3°5.225 53.5 10.8 49 7.6
2011-08-19 08:09:52 51°19.732 3°5.243 52.3 10.9 48 7.6
2011-08-19 08:09:57 51°19.742 3°5.261 51.6 10.9 48 7.9
2011-08-19 08:10:02 51°19.753 3°5.278 50.2 10.9 45 5.8
2011-08-19 08:10:07 51°19.763 3°5.296 49.1 10.9 48 7.6
2011-08-19 08:10:12 51°19.773 3°5.313 49.9 10.8 46 7.5
2011-08-19 08:10:17 51°19.783 3°5.331 50.2 10.8 49 7.6
2011-08-19 08:10:22 51°19.793 3°5.349 51 10.8 49 7.7
2011-08-19 08:10:27 51°19.802 3°5.368 52.6 10.8 54 7.6
2011-08-19 08:10:32 51°19.811 3°5.387 54.5 10.9 53 7.7
2011-08-19 08:10:37 51°19.819 3°5.408 56.5 10.9 57 7.8
2011-08-19 08:10:42 51°19.828 3°5.427 57.6 10.8 56 7.6
2011-08-19 08:10:47 51°19.834 3°5.449 59.9 10.8 63 5.7
2011-08-19 08:10:52 51°19.842 3°5.47 62.2 10.8 62 7.9
2011-08-19 08:10:57 51°19.847 3°5.492 64.7 10.9 66 7.7
2011-08-19 08:11:02 51°19.854 3°5.513 65.7 10.8 62 7.4
2011-08-19 08:11:07 51°19.861 3°5.535 65.4 10.8 64 7.9
2011-08-19 08:11:12 51°19.868 3°5.556 64.7 10.7 62 7.8
2011-08-19 08:11:17 51°19.875 3°5.576 64.3 10.7 61 7.6
2011-08-19 08:11:21 51°19.881 3°5.593 62.7 10.7 61 5.7
2011-08-19 08:11:27 51°19.89 3°5.618 62.5 10.8 58 7.8
2011-08-19 08:11:32 51°19.898 3°5.638 61.3 10.8 61 7.5
2011-08-19 08:11:37 51°19.906 3°5.658 61.4 10.7 57 7.6
2011-08-19 08:11:41 51°19.912 3°5.674 60.1 10.8 57 7.7
2011-08-19 08:11:47 51°19.922 3°5.698 58.5 10.8 53 5.9
2011-08-19 08:11:52 51°19.932 3°5.717 56.2 10.7 54 7.8
2011-08-19 08:11:57 51°19.941 3°5.736 56.2 10.8 53 7.3
2011-08-19 08:12:02 51°19.95 3°5.755 55 10.8 51 7.4
2011-08-19 08:12:07 51°19.959 3°5.774 54.8 10.9 52 7.7
2011-08-19 08:12:12 51°19.968 3°5.793 54.6 10.8 52 7.8
2011-08-19 08:12:17 51°19.977 3°5.812 55.3 10.8 55 5.7
2011-08-19 08:12:22 51°19.986 3°5.832 56.8 10.8 54 7.7
2011-08-19 08:12:27 51°19.994 3°5.852 57.2 10.9 55 7.6
2011-08-19 08:12:32 51°20.003 3°5.871 57.5 10.9 55 7.6
2011-08-19 08:12:37 51°20.011 3°5.891 58.2 10.8 57 7.7
2011-08-19 08:12:42 51°20.019 3°5.912 58.9 10.8 58 7.5
2011-08-19 08:12:47 51°20.027 3°5.932 61.1 10.8 59 7.7
2011-08-19 08:12:52 51°20.034 3°5.952 60.5 10.8 59 7.8
2011-08-19 08:12:57 51°20.042 3°5.973 61.5 10.8 58 5.8
2011-08-19 08:13:02 51°20.05 3°5.993 60.8 10.9 59 7.7
2011-08-19 08:13:07 51°20.058 3°6.013 60.4 10.8 57 7.5
2011-08-19 08:13:12 51°20.066 3°6.034 60.5 10.8 59 7.5
2011-08-19 08:13:17 51°20.074 3°6.054 60.3 10.8 57 7.6
2011-08-19 08:13:21 51°20.08 3°6.071 60.9 10.8 60 7.6
2011-08-19 08:13:27 51°20.09 3°6.094 60.2 10.8 55 7.9
2011-08-19 08:13:32 51°20.099 3°6.114 58.6 10.8 56 7.7
2011-08-19 08:13:37 51°20.108 3°6.133 57.3 10.8 54 5.8
2011-08-19 08:13:42 51°20.117 3°6.153 56.8 10.8 54 7.5
2011-08-19 08:13:47 51°20.126 3°6.171 56 10.8 51 7.5
2011-08-19 08:13:52 51°20.135 3°6.19 54.6 10.9 51 7.8
2011-08-19 08:13:57 51°20.145 3°6.209 53.8 10.9 51 7.5
2011-08-19 08:14:02 51°20.154 3°6.228 54.5 10.8 52 7.5
2011-08-19 08:14:07 51°20.164 3°6.246 54.1 10.8 50 7.8
2011-08-19 08:14:12 51°20.173 3°6.265 53.9 10.8 52 7.5
2011-08-19 08:14:17 51°20.183 3°6.283 54 10.9 48 7.6
2011-08-19 08:14:22 51°20.192 3°6.303 53.8 10.9 52 7.7
2011-08-19 08:14:27 51°20.202 3°6.32 53.6 10.8 50 7.5
2011-08-19 08:14:32 51°20.211 3°6.339 54 10.8 52 7.5
2011-08-19 08:14:37 51°20.221 3°6.358 54.7 10.8 51 7.4
2011-08-19 08:14:42 51°20.23 3°6.377 54 10.8 52 7.5
2011-08-19 08:14:47 51°20.239 3°6.396 54.5 10.8 51 7.6
2011-08-19 08:14:52 51°20.249 3°6.414 54.1 10.9 51 7.7
2011-08-19 08:14:57 51°20.258 3°6.433 54.1 10.9 51 7.8
2011-08-19 08:15:02 51°20.267 3°6.452 54.3 10.8 52 7.7
2011-08-19 08:15:07 51°20.277 3°6.471 54.7 10.8 51 7.5
2011-08-19 08:15:12 51°20.286 3°6.489 54.4 10.8 51 5.7
2011-08-19 08:15:17 51°20.295 3°6.508 54.8 10.8 52 7.5
2011-08-19 08:15:22 51°20.305 3°6.527 54.9 10.8 51 7.5
2011-08-19 08:15:27 51°20.314 3°6.546 54.9 10.8 53 7.5
2011-08-19 08:15:32 51°20.323 3°6.564 55.2 10.7 52 7.4
2011-08-19 08:15:37 51°20.331 3°6.584 55.9 10.7 56 5.7
2011-08-19 08:15:42 51°20.34 3°6.603 56.6 10.8 54 7.8
2011-08-19 08:15:47 51°20.349 3°6.623 57.2 10.8 56 7.7
2011-08-19 08:15:52 51°20.358 3°6.642 57.7 10.8 55 7.6
2011-08-19 08:15:57 51°20.366 3°6.662 58.1 10.8 56 7.7
2011-08-19 08:16:02 51°20.374 3°6.681 57.5 10.7 54 7.3
2011-08-19 08:16:07 51°20.383 3°6.701 58.1 10.7 56 7.8
2011-08-19 08:16:12 51°20.391 3°6.721 57.4 10.7 56 7.5
2011-08-19 08:16:17 51°20.4 3°6.741 58.2 10.7 56 7.6
2011-08-19 08:16:22 51°20.408 3°6.76 58.1 10.7 55 7.6
2011-08-19 08:16:27 51°20.417 3°6.779 57.8 10.7 55 7.6
2011-08-19 08:16:32 51°20.425 3°6.799 57.1 10.7 56 7.6
2011-08-19 08:16:37 51°20.434 3°6.818 57.5 10.7 54 7.5
2011-08-19 08:16:42 51°20.443 3°6.837 56.7 10.7 54 7.6
2011-08-19 08:16:47 51°20.452 3°6.856 56.8 10.7 52 7.5
2011-08-19 08:16:52 51°20.461 3°6.874 55.5 10.7 52 7.5
2011-08-19 08:16:57 51°20.47 3°6.893 55.5 10.6 52 7.3
2011-08-19 08:17:02 51°20.479 3°6.911 55.5 10.7 52 7.7
2011-08-19 08:17:07 51°20.488 3°6.93 55 10.7 52 7.5
2011-08-19 08:17:12 51°20.497 3°6.949 55.3 10.7 52 7.5
2011-08-19 08:17:17 51°20.506 3°6.967 55.2 10.7 53 7.4
2011-08-19 08:17:22 51°20.515 3°6.986 55.6 10.7 52 7.5
2011-08-19 08:17:27 51°20.524 3°7.005 55.6 10.7 54 7.5
2011-08-19 08:17:32 51°20.533 3°7.024 56.3 10.7 52 7.4
2011-08-19 08:17:37 51°20.541 3°7.043 56 10.6 54 7.5
2011-08-19 08:17:42 51°20.551 3°7.062 56.3 10.7 53 7.5
2011-08-19 08:17:47 51°20.559 3°7.081 56.3 10.7 53 7.3
2011-08-19 08:17:52 51°20.568 3°7.1 56.3 10.6 55 7.3
2011-08-19 08:17:57 51°20.577 3°7.119 56.9 10.6 54 7.4
2011-08-19 08:18:02 51°20.585 3°7.139 57.4 10.7 56 7.4
2011-08-19 08:18:07 51°20.594 3°7.158 58.2 10.7 54 7.5
2011-08-19 08:18:12 51°20.602 3°7.177 57.6 10.6 56 7.3
2011-08-19 08:18:17 51°20.61 3°7.197 58 10.7 54 7.6
2011-08-19 08:18:22 51°20.619 3°7.215 57.8 10.6 54 7.3
2011-08-19 08:18:27 51°20.628 3°7.235 57.2 10.7 53 7.3
2011-08-19 08:18:32 51°20.637 3°7.254 56.4 10.7 54 7.1
2011-08-19 08:18:37 51°20.646 3°7.272 56 10.7 53 7.4
2011-08-19 08:18:42 51°20.654 3°7.292 56.1 10.7 55 7.6
2011-08-19 08:18:47 51°20.663 3°7.311 56.7 10.6 55 7.3
2011-08-19 08:18:52 51°20.671 3°7.331 58.1 10.7 55 7.3
2011-08-19 08:18:57 51°20.68 3°7.35 57.7 10.7 56 7.1
2011-08-19 08:19:02 51°20.688 3°7.37 58.5 10.7 56 7.4
2011-08-19 08:19:07 51°20.696 3°7.39 58.4 10.7 57 7.5
2011-08-19 08:19:12 51°20.704 3°7.41 59.1 10.7 57 7.5
2011-08-19 08:19:17 51°20.713 3°7.428 58.4 10.7 54 7.3
2011-08-19 08:19:22 51°20.722 3°7.448 57.6 10.8 53 7.3
2011-08-19 08:19:27 51°20.732 3°7.466 55.6 10.8 49 7.4
2011-08-19 08:19:32 51°20.741 3°7.484 53.9 10.8 51 7.5
2011-08-19 08:19:37 51°20.752 3°7.502 52.7 10.8 47 7.6
2011-08-19 08:19:42 51°20.762 3°7.518 50.1 10.8 45 7.1
2011-08-19 08:19:47 51°20.773 3°7.534 47.9 10.8 43 7.8
2011-08-19 08:19:52 51°20.784 3°7.55 46.9 10.8 43 7.5
2011-08-19 08:19:57 51°20.796 3°7.565 45.8 10.9 39 7.5
2011-08-19 08:20:02 51°20.808 3°7.581 44.4 10.9 39 7.5
2011-08-19 08:20:07 51°20.82 3°7.594 41.5 10.9 34 7.5
2011-08-19 08:20:12 51°20.833 3°7.607 39.3 10.9 34 7.6
2011-08-19 08:20:17 51°20.846 3°7.621 38.4 10.9 34 7.4
2011-08-19 08:20:22 51°20.859 3°7.634 38.2 11 31 7.6
2011-08-19 08:20:27 51°20.872 3°7.646 36.7 10.9 30 7.2
2011-08-19 08:20:32 51°20.885 3°7.658 34.9 10.9 28 7.6
2011-08-19 08:20:37 51°20.898 3°7.669 33.8 10.9 26 7.5
2011-08-19 08:20:42 51°20.912 3°7.678 31.1 10.9 24 7.5
2011-08-19 08:20:47 51°20.926 3°7.689 30.6 11 24 7.6
2011-08-19 08:20:52 51°20.94 3°7.698 29.4 11 22 8
2011-08-19 08:20:57 51°20.954 3°7.707 28.6 10.9 24 7.4
2011-08-19 08:21:02 51°20.968 3°7.716 28.3 10.9 22 5.7
2011-08-19 08:21:07 51°20.982 3°7.726 28.9 10.9 22 7.5
2011-08-19 08:21:12 51°20.996 3°7.733 27.6 11 18 7.4
2011-08-19 08:21:17 51°21.011 3°7.741 25.7 11 17 7.7
2011-08-19 08:21:22 51°21.026 3°7.747 24 11 15 7.5
2011-08-19 08:21:27 51°21.04 3°7.753 22.4 11 15 7.5
2011-08-19 08:21:32 51°21.055 3°7.758 21.6 11 13 7.4
2011-08-19 08:21:37 51°21.07 3°7.764 20.8 11 14 7.6
2011-08-19 08:21:42 51°21.085 3°7.77 20.4 11 13 7.5
2011-08-19 08:21:47 51°21.1 3°7.776 20.4 11.1 14 7.5
2011-08-19 08:21:52 51°21.115 3°7.781 20.4 11.1 13 7.4
2011-08-19 08:21:57 51°21.13 3°7.787 20.5 11.1 13 7.4
2011-08-19 08:22:02 51°21.145 3°7.793 20.4 11.1 13 7.8
2011-08-19 08:22:07 51°21.16 3°7.798 20.5 11.1 13 7.7
2011-08-19 08:22:12 51°21.175 3°7.803 20.6 11.1 12 7.7
2011-08-19 08:22:17 51°21.19 3°7.809 20.8 11.1 13 5.8
2011-08-19 08:22:22 51°21.205 3°7.814 20.7 11.1 12 7.9
2011-08-19 08:22:27 51°21.22 3°7.819 20.8 11.2 13 7.9
2011-08-19 08:22:32 51°21.235 3°7.825 21.2 11.1 13 8.2
2011-08-19 08:22:37 51°21.25 3°7.83 21.8 11.1 13 7.7
2011-08-19 08:22:42 51°21.266 3°7.836 21.6 11.1 13 8.3
2011-08-19 08:22:47 51°21.281 3°7.841 21.1 11.2 12 -999
2011-08-19 08:22:53 51°21.299 3°7.847 21.1 11.1 12 8.5
2011-08-19 08:22:57 51°21.31 3°7.851 21.4 10.7 13 8.3
2011-08-19 08:23:02 51°21.324 3°7.857 22.6 10.4 14 8.1
2011-08-19 08:23:07 51°21.338 3°7.863 24 10.1 15 8.6
2011-08-19 08:23:12 51°21.35 3°7.869 25.8 9.5 16 8.6
2011-08-19 08:23:17 51°21.363 3°7.874 26.6 9.1 15 8.9
2011-08-19 08:23:22 51°21.374 3°7.879 26.9 8.6 15 8.6
2011-08-19 08:23:27 51°21.385 3°7.883 26.6 8.1 12 8.6
2011-08-19 08:23:32 51°21.395 3°7.886 26.1 7.6 13 8.9
2011-08-19 08:23:37 51°21.405 3°7.889 25.6 7.3 9 9.1
2011-08-19 08:23:42 51°21.414 3°7.89 24.4 6.8 6 9
2011-08-19 08:23:47 51°21.423 3°7.889 20.1 6.3 355 9.3
2011-08-19 08:23:52 51°21.432 3°7.885 13.4 6.1 346 9.3
2011-08-19 08:23:57 51°21.439 3°7.88 6.6 5.9 338 9.5
2011-08-19 08:24:02 51°21.446 3°7.874 359.8 5.8 331 9
2011-08-19 08:24:07 51°21.452 3°7.866 352.9 5.6 321 9.3
2011-08-19 08:24:12 51°21.458 3°7.858 346.3 5.6 315 9.7
2011-08-19 08:24:17 51°21.463 3°7.849 338.1 5.5 310 9.7
2011-08-19 08:24:22 51°21.467 3°7.839 333.2 5.4 305 9.5
2011-08-19 08:24:27 51°21.471 3°7.829 326.9 5.5 298 9.4
2011-08-19 08:24:32 51°21.474 3°7.817 320.7 5.5 293 9.3
2011-08-19 08:24:37 51°21.476 3°7.805 313.8 5.6 287 9.6
2011-08-19 08:24:42 51°21.477 3°7.793 307.1 5.4 283 9.5
2011-08-19 08:24:47 51°21.478 3°7.782 300.6 5.3 278 9.5
2011-08-19 08:24:52 51°21.479 3°7.77 294.8 5.1 275 9.5
2011-08-19 08:24:57 51°21.479 3°7.76 290.6 5 272 9.3
2011-08-19 08:25:02 51°21.479 3°7.749 286.8 4.8 270 9.3
2011-08-19 08:25:07 51°21.479 3°7.738 283.4 4.8 268 9.5
2011-08-19 08:25:12 51°21.478 3°7.728 280.2 4.6 264 9.4
2011-08-19 08:25:17 51°21.477 3°7.719 277.3 4.5 263 9.6
2011-08-19 08:25:22 51°21.476 3°7.708 274.4 4.5 261 9.4
2011-08-19 08:25:27 51°21.475 3°7.699 271.4 4.4 260 9.5
2011-08-19 08:25:32 51°21.474 3°7.69 268.6 4.3 258 9.5
2011-08-19 08:25:37 51°21.472 3°7.681 265.7 4.2 255 9.7
2011-08-19 08:25:42 51°21.471 3°7.672 263.6 4.1 252 9.9
2011-08-19 08:25:47 51°21.469 3°7.663 261.4 4 252 10
2011-08-19 08:25:52 51°21.467 3°7.655 259.4 4 251 9.8
2011-08-19 08:25:57 51°21.465 3°7.647 257.9 3.9 252 9.7
2011-08-19 08:26:02 51°21.464 3°7.639 257 3.9 249 9.8
2011-08-19 08:26:07 51°21.462 3°7.63 256.2 3.9 251 9.6
2011-08-19 08:26:12 51°21.46 3°7.622 255.6 3.8 248 9.4
2011-08-19 08:26:17 51°21.458 3°7.614 255.5 3.8 251 9.2
2011-08-19 08:26:22 51°21.456 3°7.607 255.2 3.8 250 9.1
2011-08-19 08:26:27 51°21.454 3°7.599 255.1 3.7 251 9.3
2011-08-19 08:26:32 51°21.453 3°7.591 254.8 3.7 248 9.5
2011-08-19 08:26:37 51°21.451 3°7.583 254.8 3.7 248 9.3
2011-08-19 08:26:42 51°21.449 3°7.576 255 3.8 251 9.3
2011-08-19 08:26:47 51°21.447 3°7.568 255.6 3.8 249 9.4
2011-08-19 08:26:52 51°21.445 3°7.56 256.3 3.8 250 9.5
2011-08-19 08:26:57 51°21.443 3°7.552 256.9 3.8 250 9.6
2011-08-19 08:27:02 51°21.442 3°7.544 257.3 3.8 250 9.7
2011-08-19 08:27:07 51°21.44 3°7.536 258 3.9 250 9.9
2011-08-19 08:27:12 51°21.438 3°7.527 259 4 252 9.5
2011-08-19 08:27:17 51°21.437 3°7.519 259.9 4 253 9.4
2011-08-19 08:27:22 51°21.435 3°7.51 261.3 4 254 9.4
2011-08-19 08:27:27 51°21.434 3°7.501 262.9 4.1 255 9.5
2011-08-19 08:27:32 51°21.432 3°7.493 264.8 4.1 255 9.4
2011-08-19 08:27:37 51°21.431 3°7.484 266.3 4.2 256 9.6
2011-08-19 08:27:42 51°21.43 3°7.474 268.5 4.3 259 9.5
2011-08-19 08:27:47 51°21.429 3°7.465 270.9 4.4 260 9.6
2011-08-19 08:27:52 51°21.428 3°7.455 273.7 4.5 262 9.6
2011-08-19 08:27:57 51°21.427 3°7.445 276.5 4.4 265 9.6
2011-08-19 08:28:02 51°21.427 3°7.435 279.1 4.5 266 9.1
2011-08-19 08:28:07 51°21.426 3°7.425 281.6 4.5 268 9.5
2011-08-19 08:28:12 51°21.426 3°7.415 284.5 4.6 268 9.7
2011-08-19 08:28:17 51°21.426 3°7.405 287.6 4.6 271 9.7
2011-08-19 08:28:22 51°21.427 3°7.395 290.1 4.6 274 9.6
2011-08-19 08:28:27 51°21.428 3°7.385 293.4 4.5 275 9.5
2011-08-19 08:28:32 51°21.428 3°7.375 296.4 4.5 279 9.5
2011-08-19 08:28:37 51°21.429 3°7.365 299.9 4.5 280 9.6
2011-08-19 08:28:42 51°21.431 3°7.356 303.5 4.4 282 9.5
2011-08-19 08:28:47 51°21.432 3°7.346 307.2 4.4 286 9.5
2011-08-19 08:28:52 51°21.434 3°7.337 311.4 4.3 288 9.4
2011-08-19 08:28:57 51°21.436 3°7.329 315.5 4.1 291 9.3
2011-08-19 08:29:02 51°21.438 3°7.321 319.5 4.1 292 9.5
2011-08-19 08:29:07 51°21.441 3°7.313 323.8 4 296 9.7
2011-08-19 08:29:12 51°21.444 3°7.305 328.2 4 298 9.7
2011-08-19 08:29:17 51°21.446 3°7.299 332.1 3.8 303 9.5
2011-08-19 08:29:22 51°21.449 3°7.292 336.8 3.8 306 9.5
2011-08-19 08:29:27 51°21.453 3°7.286 341.9 3.6 311 9.5
2011-08-19 08:29:32 51°21.456 3°7.281 347 3.5 316 9.5
2011-08-19 08:29:37 51°21.46 3°7.276 352.5 3.4 321 9.4
2011-08-19 08:29:42 51°21.464 3°7.272 358.1 3.3 324 9.5
2011-08-19 08:29:47 51°21.467 3°7.268 3.4 3.1 332 9.7
2011-08-19 08:29:52 51°21.471 3°7.265 7.4 3 335 9.7
2011-08-19 08:29:57 51°21.475 3°7.263 11 3.1 339 9.5
2011-08-19 08:30:02 51°21.479 3°7.261 14.6 3 343 9.5
2011-08-19 08:30:07 51°21.483 3°7.259 17.8 2.8 346 9.3
2011-08-19 08:30:12 51°21.486 3°7.258 21.2 2.6 348 9.5
2011-08-19 08:30:17 51°21.49 3°7.258 24.6 2.5 353 9.7
2011-08-19 08:30:22 51°21.493 3°7.257 26.4 2.7 352 9.8
2011-08-19 08:30:27 51°21.497 3°7.257 27.7 2.6 2 10.1
2011-08-19 08:30:32 51°21.501 3°7.257 28.4 2.7 359 9.8
2011-08-19 08:30:37 51°21.504 3°7.258 29.2 2.7 4 9.9
2011-08-19 08:30:42 51°21.508 3°7.258 29.7 2.8 1 9.9
2011-08-19 08:30:47 51°21.512 3°7.258 29.5 2.9 5 9.9
2011-08-19 08:30:52 51°21.516 3°7.258 29.4 2.9 3 9.9
2011-08-19 08:30:57 51°21.52 3°7.259 29.1 3 4 10
2011-08-19 08:31:02 51°21.525 3°7.26 28.9 3 5 9.9
2011-08-19 08:31:07 51°21.529 3°7.26 28.7 2.9 5 9.9
2011-08-19 08:31:12 51°21.533 3°7.261 28.7 3 6 10.1
2011-08-19 08:31:17 51°21.537 3°7.261 28.5 3 4 9.9
2011-08-19 08:31:21 51°21.54 3°7.262 28.3 3 5 10.2
2011-08-19 08:31:27 51°21.546 3°7.263 27.9 3.1 5 9.9
2011-08-19 08:31:32 51°21.55 3°7.264 27.7 3 4 9.9
2011-08-19 08:31:37 51°21.554 3°7.264 27.5 3 3 9.8
2011-08-19 08:31:42 51°21.558 3°7.264 26.9 3 1 10
2011-08-19 08:31:47 51°21.562 3°7.265 26.4 3.1 2 10.3